Latest Weather Observations for Minlaton Airport

IDS60801

Issued at 10:31 pm CST Friday 17 August 2018 (issued every 10 minutes, with the page automatically refreshed every 10 minutes)

About weather observations | Map of weather stations | Latest weather observations for SA | Other Formats
Station Details ID: 022031 Name: MINLATON AERO Lat: -34.75 Lon: 137.53 Height: 32.0 m
Data from the previous 72 hours. | See also: Recent months at Minlaton Airport
Date/Time
CST
Temp
°C
App
Temp
°C
Dew
Point
°C
Rel
Hum
%
Delta-T
°C
Wind Press
QNH
hPa
Press
MSL
hPa
Rain since
9am
mm
Dir  Spd
km/h
Gust
km/h
Spd
kts
Gust
kts
17/10:30pm 10.2 4.9 8.3 88 0.9 WSW 26 52 14 28 1013.1 1013.1 3.6
17/10:22pm 10.8 5.2 8.6 86 1.1 W 28 52 15 28 1013.1 1013.1 3.6
17/10:00pm 11.3 6.0 9.7 90 0.8 W 28 37 15 20 1013.1 1013.1 3.6
17/09:30pm 11.2 6.2 9.6 90 0.8 W 26 33 14 18 1013.2 1013.2 3.0
17/09:00pm 10.9 5.8 9.2 89 0.8 W 26 35 14 19 1013.0 1013.0 2.4
17/08:30pm 11.1 7.3 9.7 91 0.7 W 20 28 11 15 1013.0 1013.0 1.6
17/08:00pm 11.0 5.6 9.6 91 0.7 W 28 37 15 20 1013.1 1013.1 1.0
17/07:30pm 11.5 4.2 8.9 84 1.3 WSW 37 54 20 29 1012.5 1012.5 0.2
17/07:00pm 11.9 4.2 8.7 81 1.6 WSW 39 54 21 29 1012.1 1012.1 0.0
17/06:50pm 14.0 7.9 8.2 68 2.9 WNW 30 54 16 29 1011.8 1011.8 0.0
17/06:30pm 13.9 9.3 9.5 75 2.3 NW 24 30 13 16 1011.2 1011.2 0.0
17/06:00pm 13.8 9.4 9.0 73 2.4 NNW 22 26 12 14 1011.1 1011.1 0.0
17/05:30pm 13.9 8.9 8.1 68 2.9 NNW 24 28 13 15 1010.8 1010.8 0.0
17/05:00pm 14.9 9.6 8.6 66 3.2 NNW 26 32 14 17 1010.7 1010.7 0.0
17/04:30pm 15.5 9.5 8.5 63 3.6 NNW 30 37 16 20 1010.4 1010.4 0.0
17/04:00pm 15.8 8.6 7.8 59 4.0 NNW 35 43 19 23 1010.5 1010.5 0.0
17/03:30pm 15.6 8.9 9.5 67 3.2 NNW 35 44 19 24 1011.2 1011.2 0.0
17/03:00pm 15.7 8.4 8.9 64 3.5 NNW 37 46 20 25 1011.2 1011.2 0.0
17/02:30pm 15.8 8.5 10.1 69 3.0 NNW 39 50 21 27 1011.3 1011.3 0.0
17/02:00pm 15.6 8.2 9.9 69 3.0 NNW 39 46 21 25 1011.8 1011.8 0.0
17/01:30pm 15.3 7.4 9.2 67 3.1 NNW 41 54 22 29 1012.1 1012.1 0.0
17/01:00pm 15.4 8.0 10.0 70 2.8 NNW 39 50 21 27 1012.5 1012.5 0.0
17/12:30pm 14.7 7.3 9.7 72 2.6 NNW 39 50 21 27 1013.0 1013.0 0.0
17/12:00pm 14.6 6.9 10.0 74 2.4 NNW 41 50 22 27 1013.5 1013.5 0.0
17/11:30am 14.1 7.1 10.1 77 2.1 NNW 37 46 20 25 1014.1 1014.1 0.0
17/11:00am 13.6 7.5 10.4 81 1.7 NNW 33 43 18 23 1014.5 1014.5 0.0
17/10:30am 14.4 8.4 10.8 79 1.9 NNW 33 43 18 23 1014.5 1014.5 0.0
17/10:00am 14.2 8.2 10.2 77 2.1 NNW 32 41 17 22 1014.8 1014.8 0.0
17/09:30am 13.3 7.2 9.9 80 1.7 NNW 32 39 17 21 1014.9 1014.9 0.0
17/09:00am 13.0 7.0 10.2 83 1.4 NNW 32 39 17 21 1014.9 1014.9 2.0
17/08:30am 12.6 6.6 10.1 85 1.3 NNW 32 43 17 23 1014.9 1014.9 2.0
17/08:00am 11.9 7.0 9.8 87 1.1 NNW 26 35 14 19 1014.8 1014.8 2.0
17/07:30am 11.1 6.5 9.5 90 0.8 NNW 24 28 13 15 1014.5 1014.5 2.0
17/07:00am 10.4 5.9 8.7 89 0.8 NNW 22 32 12 17 1014.3 1014.3 2.0
17/06:30am 10.8 5.6 8.9 88 0.9 NNW 26 33 14 18 1014.2 1014.2 2.0
17/06:00am 10.7 6.3 9.1 90 0.8 NNW 22 28 12 15 1014.2 1014.2 2.0
17/05:30am 11.1 6.4 9.2 88 0.9 NW 24 33 13 18 1014.3 1014.3 2.0
17/05:00am 9.2 5.5 8.1 93 0.5 N 17 22 9 12 1014.3 1014.3 2.0
17/04:30am 8.3 4.0 7.2 93 0.5 N 19 22 10 12 1014.4 1014.4 2.0
17/04:00am 7.7 3.4 6.8 94 0.4 N 19 20 10 11 1014.5 1014.5 2.0
17/03:30am 7.3 3.2 6.4 94 0.4 N 17 20 9 11 1014.8 1014.8 2.0
17/03:00am 7.1 3.0 6.0 93 0.5 N 17 20 9 11 1014.9 1014.9 2.0
17/02:30am 7.0 3.3 6.3 95 0.3 N 15 17 8 9 1015.3 1015.3 2.0
17/02:00am 6.4 2.5 5.5 94 0.4 N 15 17 8 9 1015.7 1015.7 2.0
17/01:30am 7.1 3.4 6.4 95 0.3 N 15 19 8 10 1015.8 1015.8 2.0
17/01:00am 6.9 2.8 6.2 95 0.3 N 17 19 9 10 1015.8 1015.8 2.0
17/12:30am 6.4 1.8 5.7 95 0.3 N 19 20 10 11 1016.0 1016.0 2.0
17/12:00am 7.3 3.2 6.4 94 0.4 N 17 20 9 11 1016.0 1016.0 2.0
 
Date/Time
CST
Temp
°C
App
Temp
°C
Dew
Point
°C
Rel
Hum
%
Delta-T
°C
Wind Press
QNH
hPa
Press
MSL
hPa
Rain since
9am
mm
Dir  Spd
km/h
Gust
km/h
Spd
kts
Gust
kts
16/11:30pm 7.2 2.7 6.1 93 0.5 N 19 22 10 12 1016.1 1016.1 2.0
16/11:00pm 6.7 2.1 5.7 93 0.4 N 19 20 10 11 1016.4 1016.4 2.0
16/10:30pm 6.8 2.6 5.6 92 0.5 N 17 20 9 11 1016.4 1016.4 2.0
16/10:00pm 7.7 3.7 6.5 92 0.6 NNE 17 19 9 10 1016.7 1016.7 2.0
16/09:30pm 7.4 4.0 5.7 89 0.8 N 13 19 7 10 1016.7 1016.7 2.0
16/09:00pm 8.1 4.8 6.6 90 0.7 N 13 13 7 7 1016.8 1016.8 2.0
16/08:30pm 8.5 6.0 6.6 88 0.9 NNE 9 13 5 7 1016.6 1016.6 2.0
16/08:00pm 8.9 7.1 7.2 89 0.8 NNW 6 9 3 5 1016.6 1016.6 2.0
16/07:30pm 8.5 6.1 6.8 89 0.8 N 9 11 5 6 1016.5 1016.5 2.0
16/07:00pm 7.9 5.4 6.4 90 0.7 NNW 9 11 5 6 1016.3 1016.3 2.0
16/06:30pm 8.6 6.6 6.9 89 0.8 NNW 7 7 4 4 1016.1 1016.1 2.0
16/06:00pm 8.8 6.4 7.1 89 0.8 NNW 9 13 5 7 1016.0 1016.0 2.0
16/05:30pm 11.1 9.3 8.0 81 1.5 W 7 9 4 5 1016.0 1016.0 2.0
16/05:00pm 11.9 9.3 7.8 76 2.0 W 11 15 6 8 1016.1 1016.1 2.0
16/04:30pm 12.7 9.0 8.0 73 2.3 W 17 20 9 11 1016.0 1016.0 2.0
16/04:00pm 12.7 8.4 7.0 68 2.7 WNW 19 24 10 13 1016.1 1016.1 2.0
16/03:30pm 12.1 7.3 7.2 72 2.4 WNW 22 30 12 16 1016.2 1016.2 2.0
16/03:00pm 11.2 5.5 8.2 82 1.5 WNW 28 39 15 21 1016.5 1016.5 2.0
16/02:49pm 11.1 5.3 8.1 82 1.5 WNW 28 39 15 21 1016.5 1016.5 2.0
16/02:30pm 12.1 9.0 8.9 81 1.6 WNW 15 19 8 10 1016.6 1016.6 2.0
16/02:00pm 10.6 7.1 8.9 89 0.8 W 17 20 9 11 1016.8 1016.8 2.0
16/01:30pm 14.3 8.6 8.3 67 3.0 NW 28 37 15 20 1016.5 1016.5 0.2
16/01:00pm 14.2 8.7 6.1 58 3.9 WNW 24 35 13 19 1016.8 1016.8 0.2
16/12:30pm 14.0 8.9 6.1 59 3.8 W 22 30 12 16 1017.1 1017.1 0.2
16/12:00pm 13.0 9.4 8.3 73 2.3 W 17 26 9 14 1017.5 1017.5 0.2
16/11:30am 14.5 9.4 7.5 63 3.4 W 24 33 13 18 1017.8 1017.8 0.0
16/11:00am 13.4 9.0 6.7 64 3.2 WNW 19 24 10 13 1017.9 1017.9 0.0
16/10:30am 12.4 9.2 6.9 69 2.6 SW 13 20 7 11 1017.9 1017.9 0.0
16/10:00am 12.7 7.5 5.6 62 3.3 W 22 30 12 16 1017.8 1017.8 0.0
16/09:30am 12.7 9.7 7.8 72 2.4 WNW 13 17 7 9 1017.7 1017.7 0.0
16/09:00am 11.6 9.1 8.1 79 1.7 WNW 11 17 6 9 1017.8 1017.8 0.6
16/08:30am 10.3 9.2 6.8 79 1.6 WSW 2 6 1 3 1017.5 1017.5 0.6
16/08:00am 9.7 7.6 6.8 82 1.4 WSW 7 9 4 5 1017.2 1017.2 0.6
16/07:30am 6.1 3.6 4.9 92 0.5 NNW 7 7 4 4 1017.0 1017.0 0.6
16/07:00am 4.2 2.3 2.7 90 0.6 WNW 2 7 1 4 1016.9 1016.9 0.6
16/06:30am 5.6 2.5 3.8 88 0.8 SSW 9 11 5 6 1016.5 1016.5 0.6
16/06:00am 5.8 2.3 3.5 85 1.0 SSW 11 13 6 7 1016.3 1016.3 0.6
16/05:30am 5.0 1.9 3.7 91 0.5 SSW 9 11 5 6 1016.2 1016.2 0.6
16/05:00am 5.5 3.0 3.5 87 0.8 SSW 6 7 3 4 1016.2 1016.2 0.6
16/04:30am 7.4 4.6 5.2 86 1.0 SW 9 11 5 6 1016.0 1016.0 0.6
16/04:00am 6.6 4.2 5.1 90 0.7 SW 7 11 4 6 1015.9 1015.9 0.6
16/03:30am 7.7 4.9 5.2 84 1.1 SW 9 13 5 7 1015.8 1015.8 0.6
16/03:00am 7.2 4.4 5.0 86 1.0 W 9 11 5 6 1016.0 1016.0 0.6
16/02:30am 8.0 5.4 6.0 87 0.9 WSW 9 13 5 7 1016.1 1016.1 0.6
16/02:00am 8.4 5.8 5.9 84 1.1 WSW 9 15 5 8 1016.2 1016.2 0.6
16/01:30am 8.5 5.5 6.0 84 1.1 SW 11 13 6 7 1016.4 1016.4 0.6
16/01:00am 8.2 5.2 6.0 86 1.0 SW 11 13 6 7 1016.3 1016.3 0.6
16/12:30am 8.1 6.6 6.9 92 0.6 SW 4 9 2 5 1016.1 1016.1 0.6
16/12:00am 7.6 5.4 5.4 86 1.0 SW 6 9 3 5 1016.1 1016.1 0.6
 
Date/Time
CST
Temp
°C
App
Temp
°C
Dew
Point
°C
Rel
Hum
%
Delta-T
°C
Wind Press
QNH
hPa
Press
MSL
hPa
Rain since
9am
mm
Dir  Spd
km/h
Gust
km/h
Spd
kts
Gust
kts
15/11:30pm 8.5 7.2 6.0 84 1.1 SW 2 7 1 4 1016.3 1016.3 0.6
15/11:00pm 9.0 4.9 6.4 84 1.2 WSW 17 19 9 10 1016.2 1016.2 0.6
15/10:30pm 8.4 4.6 5.9 84 1.1 WSW 15 19 8 10 1016.3 1016.3 0.6
15/10:00pm 9.9 5.6 7.2 83 1.3 WSW 19 22 10 12 1016.2 1016.2 0.6
15/09:30pm 10.3 6.2 7.9 85 1.2 WSW 19 22 10 12 1016.0 1016.0 0.6
15/09:00pm 9.8 5.5 7.1 83 1.3 W 19 20 10 11 1015.9 1015.9 0.6
15/08:30pm 10.2 5.9 7.1 81 1.5 WSW 19 24 10 13 1015.6 1015.6 0.6
15/08:00pm 9.0 5.0 6.6 85 1.1 WSW 17 20 9 11 1015.5 1015.5 0.6
15/07:30pm 9.4 5.4 6.7 83 1.3 WSW 17 22 9 12 1015.5 1015.5 0.6
15/07:00pm 11.6 5.2 6.9 73 2.2 WSW 30 41 16 22 1015.0 1015.0 0.6
15/06:30pm 11.4 6.6 7.5 77 1.9 WSW 22 28 12 15 1014.5 1014.5 0.6
15/06:00pm 11.9 5.1 6.8 71 2.4 WSW 32 41 17 22 1014.2 1014.2 0.6
15/05:30pm 11.7 7.2 8.7 82 1.5 W 22 28 12 15 1014.0 1014.0 0.6
15/05:00pm 12.8 8.0 8.7 76 2.1 WSW 24 30 13 16 1013.7 1013.7 0.6
15/04:30pm 13.1 7.6 9.2 77 2.0 W 28 35 15 19 1013.8 1013.8 0.6
15/04:00pm 13.7 7.3 8.7 72 2.5 W 32 41 17 22 1013.3 1013.3 0.6
15/03:30pm 13.2 7.5 9.8 80 1.7 W 30 35 16 19 1013.3 1013.3 0.6
15/03:07pm 12.3 6.1 9.3 82 1.5 W 32 52 17 28 1013.3 1013.3 0.6
15/03:00pm 13.3 8.0 9.9 80 1.8 W 28 35 15 19 1013.2 1013.2 0.6
15/02:30pm 13.1 7.9 10.3 83 1.5 W 28 35 15 19 1013.2 1013.2 0.6
15/02:00pm 11.8 5.3 10.2 90 0.8 W 35 43 19 23 1013.2 1013.2 0.6
15/01:36pm 13.4 8.1 10.0 80 1.8 W 28 48 15 26 1013.1 1013.1 0.2
15/01:30pm 13.9 9.0 10.1 78 2.0 WNW 26 33 14 18 1013.0 1013.0 0.2
15/01:00pm 13.4 8.0 10.9 85 1.3 WNW 30 37 16 20 1013.0 1013.0 0.2
15/12:30pm 12.3 7.0 9.9 85 1.2 W 28 35 15 19 1013.4 1013.4 0.0
15/12:00pm 15.4 9.6 10.8 74 2.4 NW 32 41 17 22 1013.2 1013.2 0.0
15/11:30am 14.8 9.3 10.6 76 2.2 NW 30 39 16 21 1013.5 1013.5 0.0
15/11:00am 15.3 10.8 11.5 78 2.0 NW 26 32 14 17 1013.6 1013.6 0.0
15/10:30am 15.1 9.0 10.3 73 2.5 NW 33 39 18 21 1013.5 1013.5 0.0
15/10:00am 15.3 11.0 11.9 80 1.8 NW 26 33 14 18 1013.4 1013.4 0.0
15/09:30am 15.0 9.9 11.8 81 1.7 NW 30 35 16 19 1013.3 1013.3 0.0
15/09:00am 14.7 10.4 10.9 78 2.0 NW 24 33 13 18 1013.0 1013.0 0.2
15/08:30am 14.1 10.4 11.6 85 1.3 NW 22 28 12 15 1013.0 1013.0 0.2
15/08:00am 13.6 10.0 11.7 88 1.0 NW 22 26 12 14 1012.9 1012.9 0.2
15/07:30am 13.0 9.6 11.2 89 0.9 NW 20 26 11 14 1012.8 1012.8 0.2
15/07:00am 12.4 8.8 10.6 89 0.9 NW 20 24 11 13 1012.5 1012.5 0.2
15/06:30am 12.6 8.5 10.0 84 1.3 NW 22 26 12 14 1012.3 1012.3 0.2
15/06:00am 12.8 9.2 10.0 83 1.4 NW 19 24 10 13 1012.1 1012.1 0.2
15/05:30am 13.1 9.5 9.9 81 1.6 NNW 19 22 10 12 1011.7 1011.7 0.2
15/05:00am 12.9 9.4 10.3 84 1.3 NNW 19 20 10 11 1011.7 1011.7 0.2
15/04:30am 13.6 9.5 10.2 80 1.8 NW 22 26 12 14 1011.9 1011.9 0.2
15/04:00am 13.9 9.3 9.7 76 2.2 NW 24 30 13 16 1011.6 1011.6 0.2
15/03:30am 13.9 9.3 9.7 76 2.2 NW 24 30 13 16 1011.6 1011.6 0.2
15/03:00am 14.2 8.8 9.4 73 2.5 WNW 28 33 15 18 1012.0 1012.0 0.2
15/02:30am 14.3 8.7 8.7 69 2.8 NW 28 35 15 19 1012.1 1012.1 0.2
15/02:00am 14.4 8.6 7.9 65 3.2 WNW 28 35 15 19 1012.4 1012.4 0.2
15/01:30am 13.7 8.7 7.9 68 2.9 NNW 24 28 13 15 1012.1 1012.1 0.2
15/01:00am 13.6 7.4 7.8 68 2.9 NNW 30 35 16 19 1012.3 1012.3 0.2
15/12:30am 14.3 7.2 6.4 59 3.8 NW 33 44 18 24 1012.7 1012.7 0.2
15/12:00am 14.4 7.2 5.7 56 4.1 NNW 33 44 18 24 1012.4 1012.4 0.2
 
Date/Time
CST
Temp
°C
App
Temp
°C
Dew
Point
°C
Rel
Hum
%
Delta-T
°C
Wind Press
QNH
hPa
Press
MSL
hPa
Rain since
9am
mm
Dir  Spd
km/h
Gust
km/h
Spd
kts
Gust
kts
14/11:30pm 14.6 6.2 5.4 54 4.4 NNW 39 48 21 26 1011.9 1011.9 0.2
14/11:00pm 14.3 5.5 5.4 55 4.2 N 41 52 22 28 1011.6 1011.6 0.2

Other Formats:

Comma delimited format used in spreadsheet applications
http://www.bom.gov.au/fwo/IDS60801/IDS60801.95659.axf

JavaScript Object Notation format (JSON) in row-major order
http://www.bom.gov.au/fwo/IDS60801/IDS60801.95659.json